Time;durP1;ratioP1;P1;durP2;ratioP2;P2;SDS_P1;SDS_P2;PMS_P1;PMS_P2;Temp;Humidity;BMP_temperature;BMP_pressure;BME280_temperature;BME280_humidity;BME280_pressure;Samples;Min_cycle;Max_cycle;Signal;HPM_P1;HPM_P2
2021/07/25 00:00:37;;;;;;;18.23;13.73;;;18.40;95.70;;;;;;5023782;28;20055;-82
2021/07/25 00:03:02;;;;;;;21.35;16.08;;;18.50;95.20;;;;;;5023420;28;20036;-82
2021/07/25 00:05:28;;;;;;;20.75;14.13;;;18.50;95.40;;;;;;5055891;28;20040;-82
2021/07/25 00:07:54;;;;;;;22.45;16.92;;;18.60;95.30;;;;;;5039799;28;20048;-82
2021/07/25 00:10:19;;;;;;;23.08;18.45;;;18.50;95.40;;;;;;5058564;28;20044;-82
2021/07/25 00:12:45;;;;;;;18.10;14.25;;;18.50;95.60;;;;;;5034606;28;20041;-82
2021/07/25 00:15:10;;;;;;;25.73;15.13;;;18.50;96.00;;;;;;5007945;28;20056;-82
2021/07/25 00:17:36;;;;;;;18.98;13.65;;;18.30;96.30;;;;;;5050758;28;20032;-82
2021/07/25 00:20:02;;;;;;;20.02;14.82;;;18.40;96.10;;;;;;5015455;28;20040;-83
2021/07/25 00:22:27;;;;;;;18.52;14.40;;;18.50;95.90;;;;;;5030708;28;20020;-80
2021/07/25 00:25:07;;;;;;;19.05;13.93;;;18.30;96.30;;;;;;5021141;28;20155;-80
2021/07/25 00:27:33;;;;;;;18.58;14.13;;;18.40;96.00;;;;;;5059910;28;20017;-81
2021/07/25 00:29:59;;;;;;;21.55;15.10;;;18.40;95.90;;;;;;5039826;28;20033;-82
2021/07/25 00:32:24;;;;;;;19.63;15.23;;;18.30;96.40;;;;;;5033491;28;20037;-81
2021/07/25 00:34:50;;;;;;;26.10;15.15;;;18.30;96.40;;;;;;5036403;28;20461;-81
2021/07/25 00:37:15;;;;;;;24.88;14.57;;;18.30;96.60;;;;;;5027527;28;21482;-82
2021/07/25 00:39:41;;;;;;;23.80;15.43;;;18.30;96.10;;;;;;5035491;28;20086;-82
2021/07/25 00:42:06;;;;;;;21.23;15.35;;;18.30;96.70;;;;;;5035458;28;20028;-81
2021/07/25 00:44:32;;;;;;;24.58;17.58;;;18.30;96.30;;;;;;5038369;28;20155;-82
2021/07/25 00:46:59;;;;;;;28.88;18.08;;;18.40;96.90;;;;;;5023041;28;20060;-82
2021/07/25 00:49:25;;;;;;;32.90;23.30;;;18.10;96.90;;;;;;5054653;28;20029;-81
2021/07/25 00:51:51;;;;;;;32.33;22.58;;;18.00;97.80;;;;;;5056053;28;20040;-81
2021/07/25 00:54:16;;;;;;;31.75;24.02;;;17.80;96.40;;;;;;5028153;28;20033;-82
2021/07/25 00:56:42;;;;;;;32.28;23.48;;;17.80;98.00;;;;;;5059724;28;20039;-81
2021/07/25 00:59:07;;;;;;;20.75;15.48;;;17.70;98.80;;;;;;5025453;28;20045;-82
2021/07/25 01:01:33;;;;;;;21.48;14.82;;;17.80;97.20;;;;;;5037448;28;20028;-82
2021/07/25 01:04:16;;;;;;;20.15;16.10;;;17.90;97.20;;;;;;5055234;28;20039;-82
2021/07/25 01:06:54;;;;;;;22.77;17.80;;;17.90;97.10;;;;;;5055060;28;20059;-82
2021/07/25 01:09:39;;;;;;;19.85;14.75;;;17.80;97.90;;;;;;5052557;28;20507;-82
2021/07/25 01:12:06;;;;;;;21.33;15.93;;;17.70;97.60;;;;;;5055422;28;20040;-82
2021/07/25 01:14:35;;;;;;;25.35;18.05;;;17.90;96.70;;;;;;5029337;28;20056;-82
2021/07/25 01:17:22;;;;;;;26.15;17.42;;;17.90;97.10;;;;;;5034951;28;20101;-81
2021/07/25 01:19:49;;;;;;;28.10;17.35;;;18.00;97.10;;;;;;5048096;28;20047;-82
2021/07/25 01:22:14;;;;;;;36.78;23.33;;;17.90;97.60;;;;;;5031127;28;20032;-82
2021/07/25 01:24:40;;;;;;;23.10;15.90;;;18.00;97.20;;;;;;5032942;28;20484;-82
2021/07/25 01:27:05;;;;;;;28.13;21.15;;;17.90;97.10;;;;;;5030203;28;20025;-82
2021/07/25 01:29:31;;;;;;;37.22;24.95;;;17.90;97.90;;;;;;5035240;28;20024;-81
2021/07/25 01:31:56;;;;;;;37.65;26.05;;;17.80;98.10;;;;;;5039781;28;20017;-82
2021/07/25 01:34:22;;;;;;;38.05;24.77;;;17.70;99.10;;;;;;5062900;28;20555;-82
2021/07/25 01:36:47;;;;;;;29.67;21.02;;;17.60;98.10;;;;;;5037825;28;20488;-82
2021/07/25 01:39:13;;;;;;;35.20;25.10;;;17.70;98.00;;;;;;5021761;28;20488;-81
2021/07/25 01:41:42;;;;;;;30.92;22.48;;;17.80;98.80;;;;;;5041366;28;20035;-81
2021/07/25 01:44:08;;;;;;;31.38;23.70;;;17.60;97.80;;;;;;5026444;28;20216;-82
2021/07/25 01:46:33;;;;;;;37.03;27.10;;;17.60;97.90;;;;;;5059952;28;20028;-82
2021/07/25 01:48:59;;;;;;;37.75;28.88;;;17.90;98.30;;;;;;5025923;28;20032;-81
2021/07/25 01:51:24;;;;;;;33.20;22.48;;;17.70;99.30;;;;;;5041529;28;20473;-82
2021/07/25 01:53:50;;;;;;;32.88;19.98;;;17.60;98.00;;;;;;5052353;28;20037;-81
2021/07/25 01:56:15;;;;;;;32.85;24.95;;;17.60;97.40;;;;;;5035475;28;20101;-81
2021/07/25 01:58:41;;;;;;;44.00;27.13;;;17.70;97.90;;;;;;5046337;28;20025;-81
2021/07/25 02:01:06;;;;;;;28.20;19.95;;;17.60;97.30;;;;;;5023040;28;20036;-81
2021/07/25 02:03:34;;;;;;;42.00;29.85;;;17.60;97.00;;;;;;5023987;28;20103;-81
2021/07/25 02:05:59;;;;;;;45.65;30.38;;;17.60;98.80;;;;;;5016079;28;20040;-81
2021/07/25 02:08:25;;;;;;;48.63;31.13;;;17.50;98.80;;;;;;5048272;28;20449;-81
2021/07/25 02:10:51;;;;;;;43.80;30.65;;;17.50;97.90;;;;;;5014471;28;20021;-80
2021/07/25 02:13:17;;;;;;;48.85;32.30;;;17.30;98.10;;;;;;5014505;28;20044;-81
2021/07/25 02:15:43;;;;;;;49.08;33.20;;;17.20;97.80;;;;;;5048382;28;20430;-81
2021/07/25 02:18:09;;;;;;;34.53;24.13;;;17.20;97.20;;;;;;5031357;28;20514;-81
2021/07/25 02:20:34;;;;;;;45.60;31.17;;;17.30;98.10;;;;;;5032904;28;20032;-81
2021/07/25 02:23:00;;;;;;;46.05;32.03;;;17.40;98.50;;;;;;5030861;28;20037;-82
2021/07/25 02:25:25;;;;;;;46.80;32.17;;;17.50;99.70;;;;;;5048422;28;20021;-82
2021/07/25 02:27:51;;;;;;;45.90;28.50;;;17.20;98.20;;;;;;5047729;28;20529;-81
2021/07/25 02:30:17;;;;;;;35.75;26.10;;;17.20;98.90;;;;;;5015432;28;20480;-81
2021/07/25 02:32:42;;;;;;;47.10;32.00;;;17.20;97.90;;;;;;5048845;28;20531;-81
2021/07/25 02:35:08;;;;;;;44.53;32.63;;;17.20;98.60;;;;;;5029832;28;20052;-81
2021/07/25 02:37:34;;;;;;;49.22;32.90;;;17.20;98.20;;;;;;5024483;28;20029;-81
2021/07/25 02:39:59;;;;;;;48.42;34.03;;;17.20;99.90;;;;;;5035291;28;20071;-81
2021/07/25 02:42:25;;;;;;;50.40;34.28;;;17.00;97.20;;;;;;5035318;28;20603;-82
2021/07/25 02:44:50;;;;;;;45.38;32.70;;;17.00;97.70;;;;;;5017343;28;20024;-81
2021/07/25 02:47:16;;;;;;;50.13;32.75;;;17.00;98.50;;;;;;5013144;28;20048;-81
2021/07/25 02:49:41;;;;;;;51.65;34.55;;;16.90;97.80;;;;;;5015533;28;20407;-81
2021/07/25 02:52:07;;;;;;;48.85;32.20;;;16.90;99.70;;;;;;5014418;28;20036;-81
2021/07/25 02:54:33;;;;;;;50.30;31.73;;;17.10;99.90;;;;;;5046283;28;20029;-81
2021/07/25 02:56:58;;;;;;;51.85;35.25;;;17.10;99.00;;;;;;5028872;28;20070;-81
2021/07/25 02:59:24;;;;;;;55.92;33.97;;;17.10;99.90;;;;;;5035426;28;20028;-81
2021/07/25 03:01:50;;;;;;;43.03;28.98;;;17.00;98.70;;;;;;5028126;28;20060;-81
2021/07/25 03:04:17;;;;;;;52.22;33.35;;;17.00;98.10;;;;;;5029147;28;20498;-81
2021/07/25 03:06:42;;;;;;;49.17;34.35;;;17.00;98.80;;;;;;5030489;28;20508;-81
2021/07/25 03:09:08;;;;;;;49.90;34.10;;;17.00;99.50;;;;;;5029544;28;20129;-81
2021/07/25 03:11:34;;;;;;;56.05;36.22;;;16.90;99.90;;;;;;5028876;28;20025;-81
2021/07/25 03:14:02;;;;;;;32.33;22.30;;;17.00;99.60;;;;;;5014909;28;20117;-81
2021/07/25 03:16:27;;;;;;;54.30;34.60;;;16.80;99.10;;;;;;5013240;28;20039;-81
2021/07/25 03:18:53;;;;;;;51.08;32.42;;;16.80;99.20;;;;;;5030732;28;20404;-81
2021/07/25 03:21:19;;;;;;;52.40;34.90;;;16.80;98.30;;;;;;5029736;28;20037;-81
2021/07/25 03:23:44;;;;;;;39.60;25.25;;;16.90;99.20;;;;;;5012780;28;20029;-81
2021/07/25 03:26:10;;;;;;;23.45;17.95;;;16.90;97.90;;;;;;5029725;28;20055;-80
2021/07/25 03:28:35;;;;;;;38.22;28.60;;;17.00;97.20;;;;;;5028510;28;20040;-81
2021/07/25 03:31:01;;;;;;;44.95;31.70;;;16.90;97.60;;;;;;5029705;28;20040;-81
2021/07/25 03:33:26;;;;;;;52.45;32.22;;;16.80;99.50;;;;;;5022928;28;20059;-81
2021/07/25 03:35:52;;;;;;;47.55;32.13;;;16.60;98.80;;;;;;5050360;28;20063;-81
2021/07/25 03:38:17;;;;;;;54.38;34.63;;;16.60;99.30;;;;;;5016834;28;20119;-82
2021/07/25 03:40:44;;;;;;;53.03;33.10;;;16.60;99.90;;;;;;5033927;28;20029;-80
2021/07/25 03:43:10;;;;;;;53.85;35.60;;;16.50;98.20;;;;;;5017650;28;20037;-81
2021/07/25 03:45:36;;;;;;;51.58;32.90;;;16.30;99.00;;;;;;5033882;28;20052;-81
2021/07/25 03:48:02;;;;;;;48.80;34.50;;;16.30;99.90;;;;;;5017524;28;20055;-81
2021/07/25 03:50:27;;;;;;;51.08;34.15;;;16.40;99.30;;;;;;5050899;28;20121;-81
2021/07/25 03:52:53;;;;;;;54.65;35.53;;;16.40;99.90;;;;;;5034329;28;20361;-81
2021/07/25 03:55:19;;;;;;;54.90;34.60;;;16.40;99.80;;;;;;5032655;28;20056;-81
2021/07/25 03:57:45;;;;;;;76.95;38.88;;;16.40;99.90;;;;;;5034667;28;20032;-81
2021/07/25 04:00:11;;;;;;;33.00;24.95;;;16.40;99.90;;;;;;5047456;28;20109;-81
2021/07/25 04:02:37;;;;;;;54.90;36.28;;;16.40;98.80;;;;;;5033662;28;20107;-81
2021/07/25 04:05:02;;;;;;;60.05;35.58;;;16.50;99.80;;;;;;5050115;28;20032;-81
2021/07/25 04:07:28;;;;;;;68.10;35.30;;;16.40;99.90;;;;;;5032984;28;20036;-81
2021/07/25 04:09:53;;;;;;;58.95;39.22;;;16.40;99.90;;;;;;5034214;28;20025;-81
2021/07/25 04:12:19;;;;;;;63.15;38.78;;;16.40;99.90;;;;;;5030935;28;20033;-81
2021/07/25 04:14:45;;;;;;;34.97;22.92;;;16.40;99.90;;;;;;5029308;28;20025;-81
2021/07/25 04:17:11;;;;;;;53.95;32.15;;;16.50;98.90;;;;;;5033110;28;20051;-81
2021/07/25 04:19:36;;;;;;;51.05;32.45;;;16.40;99.00;;;;;;5033877;28;20032;-81
2021/07/25 04:22:02;;;;;;;56.08;35.28;;;16.50;99.30;;;;;;5017278;28;20025;-81
2021/07/25 04:24:28;;;;;;;53.55;34.33;;;16.50;98.40;;;;;;5033067;28;20601;-81
2021/07/25 04:26:53;;;;;;;61.65;35.97;;;16.50;99.60;;;;;;5034903;28;20070;-80
2021/07/25 04:29:19;;;;;;;36.17;25.02;;;16.50;99.40;;;;;;5032462;28;20518;-80
2021/07/25 04:31:45;;;;;;;50.72;31.60;;;16.50;98.60;;;;;;5017756;28;20025;-80
2021/07/25 04:34:11;;;;;;;42.30;27.05;;;16.60;98.30;;;;;;5028578;28;20365;-80
2021/07/25 04:36:44;;;;;;;60.63;35.30;;;16.60;98.00;;;;;;5032584;28;20023;-80
2021/07/25 04:39:10;;;;;;;63.92;35.88;;;16.70;98.00;;;;;;5037611;28;20045;-80
2021/07/25 04:42:02;;;;;;;78.43;43.33;;;16.60;98.90;;;;;;5048620;28;20085;-80
2021/07/25 04:45:04;;;;;;;71.53;39.78;;;16.70;99.20;;;;;;5027052;28;20515;-79
2021/07/25 04:47:35;;;;;;;89.22;43.75;;;16.70;98.80;;;;;;5043181;28;20033;-81
2021/07/25 04:50:06;;;;;;;79.25;40.53;;;16.80;99.20;;;;;;5029659;28;20489;-80
2021/07/25 04:52:38;;;;;;;87.68;43.38;;;16.90;98.90;;;;;;5013580;28;20028;-80
2021/07/25 04:55:06;;;;;;;70.20;36.35;;;17.00;98.00;;;;;;5016368;28;20039;-80
2021/07/25 04:57:33;;;;;;;83.72;41.08;;;17.10;98.20;;;;;;5015544;28;20025;-80
2021/07/25 04:59:59;;;;;;;105.53;46.17;;;17.20;98.10;;;;;;5018790;28;20536;-80
2021/07/25 05:02:26;;;;;;;78.18;40.28;;;17.20;98.10;;;;;;5028284;28;20045;-80
2021/07/25 05:04:51;;;;;;;109.55;50.08;;;17.40;98.20;;;;;;5029323;28;20033;-80
2021/07/25 05:07:17;;;;;;;68.28;36.05;;;17.40;98.10;;;;;;5039117;28;20388;-80
2021/07/25 05:09:43;;;;;;;37.63;24.20;;;17.60;97.50;;;;;;5024152;28;20526;-80
2021/07/25 05:12:32;;;;;;;26.70;17.67;;;17.70;97.50;;;;;;5040041;28;20029;-80
2021/07/25 05:15:31;;;;;;;35.25;24.48;;;17.90;96.80;;;;;;5020526;28;20409;-80
2021/07/25 05:18:06;;;;;;;29.83;19.67;;;18.00;97.20;;;;;;5025725;28;20040;-79
2021/07/25 05:20:38;;;;;;;21.45;15.63;;;18.20;97.30;;;;;;5042501;28;20025;-80
2021/07/25 05:23:17;;;;;;;26.00;18.98;;;18.30;96.00;;;;;;5030732;28;20029;-81
2021/07/25 05:25:48;;;;;;;18.35;13.80;;;18.40;97.50;;;;;;5039353;28;20084;-80
2021/07/25 05:28:14;;;;;;;24.50;20.17;;;18.50;96.10;;;;;;5031454;28;20472;-80
2021/07/25 05:30:41;;;;;;;18.23;13.77;;;18.70;97.20;;;;;;5042833;28;20085;-80
2021/07/25 05:33:07;;;;;;;29.30;19.75;;;18.80;95.70;;;;;;5029751;28;20150;-79
2021/07/25 05:35:33;;;;;;;21.02;16.13;;;19.00;97.50;;;;;;5042881;28;20032;-79
2021/07/25 05:37:59;;;;;;;23.08;17.17;;;19.20;97.00;;;;;;5008893;28;20041;-78
2021/07/25 05:40:24;;;;;;;26.05;18.30;;;19.40;97.10;;;;;;5046419;28;20020;-80
2021/07/25 05:42:50;;;;;;;26.33;19.50;;;19.50;97.00;;;;;;5047950;28;20417;-79
2021/07/25 05:45:15;;;;;;;17.75;14.48;;;19.60;97.20;;;;;;5012494;28;20106;-80
2021/07/25 05:47:41;;;;;;;21.70;16.35;;;19.80;95.00;;;;;;5047425;28;20017;-81
2021/07/25 05:50:07;;;;;;;25.27;17.42;;;20.10;97.50;;;;;;5046587;28;20025;-81
2021/07/25 05:52:48;;;;;;;22.38;15.70;;;20.30;97.70;;;;;;5045196;28;20044;-81
2021/07/25 05:55:13;;;;;;;13.20;10.55;;;20.50;97.50;;;;;;5028717;28;20028;-80
2021/07/25 05:57:39;;;;;;;12.68;8.88;;;20.60;95.20;;;;;;5046434;28;20024;-80
2021/07/25 06:00:05;;;;;;;12.82;10.05;;;20.80;95.30;;;;;;5047278;28;20273;-80
2021/07/25 06:02:30;;;;;;;11.07;9.60;;;20.70;94.80;;;;;;5031488;28;20024;-81
2021/07/25 06:04:56;;;;;;;12.07;8.70;;;20.80;95.50;;;;;;5030859;28;20376;-80
2021/07/25 06:07:21;;;;;;;11.07;8.98;;;20.70;93.50;;;;;;5046294;28;20043;-80
2021/07/25 06:09:47;;;;;;;11.90;8.13;;;20.70;95.10;;;;;;5031803;28;20035;-81
2021/07/25 06:12:16;;;;;;;14.27;9.60;;;21.00;94.00;;;;;;5014416;28;20473;-80
2021/07/25 06:14:41;;;;;;;11.35;7.85;;;21.20;94.50;;;;;;5030775;28;20629;-80
2021/07/25 06:17:07;;;;;;;10.95;7.28;;;21.20;94.80;;;;;;5045315;28;20107;-79
2021/07/25 06:19:32;;;;;;;9.15;7.22;;;21.30;93.60;;;;;;5045478;28;20106;-80
2021/07/25 06:21:58;;;;;;;9.60;7.50;;;21.30;94.80;;;;;;5047617;28;20078;-80
2021/07/25 06:24:23;;;;;;;8.32;6.53;;;21.30;94.70;;;;;;5029138;28;20096;-84
2021/07/25 06:26:49;;;;;;;9.25;6.80;;;21.60;94.60;;;;;;5046965;28;20132;-82
2021/07/25 06:29:15;;;;;;;10.20;6.30;;;21.80;94.90;;;;;;5029027;28;20050;-82
2021/07/25 06:31:40;;;;;;;6.70;5.53;;;21.60;94.00;;;;;;5029722;28;20032;-81
2021/07/25 06:34:06;;;;;;;9.40;5.90;;;21.70;93.90;;;;;;5013049;28;20114;-83
2021/07/25 06:36:32;;;;;;;6.78;5.20;;;21.80;93.70;;;;;;5042275;28;20025;-82
2021/07/25 06:38:58;;;;;;;12.30;6.15;;;21.90;93.90;;;;;;5047683;28;20033;-81
2021/07/25 06:41:23;;;;;;;8.07;5.18;;;22.00;93.50;;;;;;5028560;28;20044;-81
2021/07/25 06:43:51;;;;;;;8.00;5.43;;;22.10;92.90;;;;;;5030699;28;20028;-81
2021/07/25 06:46:17;;;;;;;6.60;5.05;;;22.30;94.60;;;;;;5013344;28;20578;-81
2021/07/25 06:48:42;;;;;;;8.10;5.00;;;22.50;93.10;;;;;;5027159;28;20043;-81
2021/07/25 06:51:08;;;;;;;6.03;4.88;;;22.40;92.90;;;;;;5011043;28;20044;-80
2021/07/25 06:53:34;;;;;;;6.18;4.90;;;22.70;93.10;;;;;;5046055;28;20400;-80
2021/07/25 06:56:03;;;;;;;7.47;4.70;;;23.20;92.90;;;;;;5014420;28;20047;-81
2021/07/25 06:58:29;;;;;;;11.20;5.50;;;23.30;93.00;;;;;;5039637;28;20109;-79
2021/07/25 07:00:54;;;;;;;6.45;4.15;;;22.90;92.80;;;;;;5014159;28;20024;-79
2021/07/25 07:03:20;;;;;;;11.88;4.90;;;23.20;93.00;;;;;;5025216;28;20048;-80
2021/07/25 07:05:45;;;;;;;6.75;4.10;;;23.40;91.80;;;;;;5028359;28;20128;-79
2021/07/25 07:08:11;;;;;;;7.15;3.90;;;23.40;92.60;;;;;;5011396;28;20028;-79
2021/07/25 07:10:38;;;;;;;7.22;4.72;;;23.90;93.30;;;;;;5045243;28;20040;-79
2021/07/25 07:13:08;;;;;;;8.07;4.28;;;23.90;92.90;;;;;;5044754;28;20041;-80
2021/07/25 07:15:34;;;;;;;7.78;4.53;;;24.20;93.50;;;;;;5045985;28;20033;-80
2021/07/25 07:18:00;;;;;;;8.75;3.92;;;24.70;94.30;;;;;;5045729;28;20120;-80
2021/07/25 07:20:25;;;;;;;11.77;4.45;;;24.60;92.10;;;;;;5026715;28;20037;-79
2021/07/25 07:22:59;;;;;;;6.95;4.63;;;24.40;91.40;;;;;;5059248;28;20029;-79
2021/07/25 07:25:25;;;;;;;8.73;3.70;;;24.50;91.30;;;;;;5028508;28;20535;-79
2021/07/25 07:27:51;;;;;;;5.25;3.25;;;24.80;92.90;;;;;;5043227;28;20052;-79
2021/07/25 07:30:16;;;;;;;7.20;3.67;;;24.30;90.50;;;;;;5028750;28;20109;-79
2021/07/25 07:32:42;;;;;;;7.50;3.70;;;24.20;90.90;;;;;;5031224;28;20036;-80
2021/07/25 07:35:08;;;;;;;5.25;3.97;;;24.90;90.30;;;;;;5027303;28;20182;-80
2021/07/25 07:37:33;;;;;;;6.30;4.07;;;25.00;90.30;;;;;;5057188;28;20026;-80
2021/07/25 07:39:59;;;;;;;4.10;3.40;;;25.00;90.20;;;;;;5009125;28;20485;-81
2021/07/25 07:42:25;;;;;;;4.35;3.40;;;25.40;93.10;;;;;;5052140;28;20118;-80
2021/07/25 07:44:50;;;;;;;4.38;3.55;;;25.80;90.10;;;;;;5031952;28;20476;-82
2021/07/25 07:47:16;;;;;;;8.13;3.78;;;25.90;88.60;;;;;;5010740;28;20081;-81
2021/07/25 07:49:41;;;;;;;6.10;4.03;;;25.90;90.00;;;;;;5029090;28;20114;-81
2021/07/25 07:52:07;;;;;;;6.88;3.40;;;26.20;90.80;;;;;;5016661;28;20517;-82
2021/07/25 07:54:33;;;;;;;7.18;3.85;;;26.40;90.90;;;;;;5028609;28;20044;-83
2021/07/25 07:56:58;;;;;;;4.30;3.47;;;26.60;90.20;;;;;;5027546;28;20090;-81
2021/07/25 07:59:24;;;;;;;7.28;3.67;;;26.70;91.00;;;;;;5015397;28;20511;-81
2021/07/25 08:01:49;;;;;;;4.65;3.20;;;26.60;89.70;;;;;;5030450;28;20025;-81
2021/07/25 08:04:15;;;;;;;6.28;3.35;;;27.20;91.20;;;;;;5005150;28;20523;-83
2021/07/25 08:06:40;;;;;;;4.40;3.20;;;27.10;86.00;;;;;;5031083;28;20029;-83
2021/07/25 08:09:06;;;;;;;5.63;3.38;;;26.50;85.40;;;;;;5015447;28;20024;-82
2021/07/25 08:11:31;;;;;;;5.75;3.50;;;26.40;85.20;;;;;;5030110;28;20377;-82
2021/07/25 08:13:57;;;;;;;3.63;2.78;;;26.50;85.50;;;;;;5011124;28;20052;-82
2021/07/25 08:16:22;;;;;;;4.55;3.08;;;26.50;84.00;;;;;;5043483;28;20480;-82
2021/07/25 08:18:48;;;;;;;4.63;3.35;;;26.60;88.40;;;;;;5029190;28;20060;-81
2021/07/25 08:21:14;;;;;;;5.82;3.95;;;26.90;85.00;;;;;;5025645;28;20119;-81
2021/07/25 08:23:39;;;;;;;5.10;3.75;;;26.80;87.50;;;;;;5033487;28;20456;-83
2021/07/25 08:26:04;;;;;;;4.72;3.75;;;27.00;83.30;;;;;;5039321;28;20036;-81
2021/07/25 08:28:31;;;;;;;5.40;3.63;;;27.00;82.60;;;;;;5047446;28;20025;-82
2021/07/25 08:30:57;;;;;;;8.10;3.78;;;27.20;83.20;;;;;;5029819;28;20035;-80
2021/07/25 08:33:23;;;;;;;6.07;3.20;;;27.60;85.40;;;;;;5030132;28;20044;-81
2021/07/25 08:35:49;;;;;;;4.80;3.17;;;27.70;82.80;;;;;;5032687;28;20050;-80
2021/07/25 08:38:15;;;;;;;7.18;2.90;;;27.90;84.10;;;;;;5042920;28;20551;-80
2021/07/25 08:40:41;;;;;;;4.88;3.42;;;28.20;85.40;;;;;;5029507;28;20052;-79
2021/07/25 08:43:10;;;;;;;6.32;3.38;;;28.10;81.10;;;;;;5014856;28;20059;-79
2021/07/25 08:45:41;;;;;;;3.28;2.97;;;28.20;81.10;;;;;;5030728;28;20033;-79
2021/07/25 08:48:15;;;;;;;6.35;3.67;;;28.40;81.30;;;;;;5010855;28;20032;-79
2021/07/25 08:50:43;;;;;;;5.25;3.30;;;28.50;79.10;;;;;;5004882;28;20025;-79
2021/07/25 08:53:18;;;;;;;4.90;3.38;;;28.50;79.10;;;;;;5029203;28;20712;-78
2021/07/25 08:55:44;;;;;;;4.25;3.10;;;28.50;79.00;;;;;;5043082;28;20132;-80
2021/07/25 08:58:11;;;;;;;4.28;3.08;;;28.60;80.70;;;;;;5024854;28;20055;-79
2021/07/25 09:00:37;;;;;;;4.13;3.22;;;28.40;75.80;;;;;;5045843;28;20127;-78
2021/07/25 09:03:07;;;;;;;4.63;2.90;;;28.90;81.20;;;;;;5011675;28;20459;-76
2021/07/25 09:05:33;;;;;;;3.60;2.35;;;29.10;76.50;;;;;;5055094;28;20037;-77
2021/07/25 09:07:58;;;;;;;3.55;2.83;;;29.10;75.80;;;;;;5021406;28;20029;-76
2021/07/25 09:10:24;;;;;;;4.03;2.90;;;29.00;76.30;;;;;;5027023;28;20036;-77
2021/07/25 09:12:50;;;;;;;3.50;3.05;;;29.10;75.60;;;;;;5006834;28;20036;-77
2021/07/25 09:15:18;;;;;;;3.90;2.92;;;29.20;74.30;;;;;;5038287;28;20025;-77
2021/07/25 09:17:44;;;;;;;4.95;2.90;;;29.30;74.80;;;;;;5028533;28;20049;-77
2021/07/25 09:20:13;;;;;;;9.23;2.63;;;29.50;77.60;;;;;;5037938;28;20068;-78
2021/07/25 09:22:48;;;;;;;4.30;2.83;;;29.80;73.50;;;;;;5052354;28;20599;-76
2021/07/25 09:25:14;;;;;;;4.20;3.08;;;29.80;74.10;;;;;;5036708;28;20035;-78
2021/07/25 09:27:40;;;;;;;4.43;2.88;;;30.10;73.40;;;;;;5051388;28;20512;-78
2021/07/25 09:30:18;;;;;;;4.25;2.70;;;30.30;71.20;;;;;;5026073;28;20078;-77
2021/07/25 09:32:44;;;;;;;3.63;2.92;;;30.50;71.10;;;;;;5027391;28;20086;-83
2021/07/25 09:35:31;;;;;;;4.75;2.90;;;30.50;75.00;;;;;;5043004;28;20460;-82
2021/07/25 09:38:08;;;;;;;3.75;3.00;;;30.70;71.50;;;;;;5049017;28;20039;-82
2021/07/25 09:40:37;;;;;;;3.50;2.95;;;30.70;70.70;;;;;;5058373;28;20098;-82
2021/07/25 09:43:19;;;;;;;5.00;2.70;;;30.90;70.30;;;;;;5038766;28;20163;-81
2021/07/25 09:45:53;;;;;;;4.63;2.22;;;30.90;68.50;;;;;;5047588;28;20081;-80
2021/07/25 09:48:23;;;;;;;6.15;3.47;;;31.10;70.70;;;;;;5058198;28;20108;-79
2021/07/25 09:50:49;;;;;;;3.72;2.83;;;31.40;71.80;;;;;;5055346;28;20506;-79
2021/07/25 09:53:15;;;;;;;3.53;2.88;;;31.40;68.50;;;;;;5039643;28;20041;-79
2021/07/25 09:55:40;;;;;;;4.40;2.72;;;31.60;65.30;;;;;;5026564;28;20036;-80
2021/07/25 09:58:06;;;;;;;4.38;3.10;;;31.70;68.00;;;;;;5041004;28;20036;-77
2021/07/25 10:00:39;;;;;;;4.30;2.72;;;31.80;68.20;;;;;;5043498;28;20029;-77
2021/07/25 10:03:23;;;;;;;3.78;2.88;;;31.80;64.50;;;;;;5027288;28;20025;-78
2021/07/25 10:05:49;;;;;;;3.17;2.50;;;31.80;64.90;;;;;;5056831;28;20033;-78
2021/07/25 10:08:19;;;;;;;2.92;2.47;;;32.10;65.10;;;;;;5037587;28;20056;-78
2021/07/25 10:10:45;;;;;;;4.80;2.67;;;32.10;63.70;;;;;;5040965;28;20033;-78
2021/07/25 10:13:24;;;;;;;3.97;2.70;;;32.00;62.40;;;;;;5028208;28;20032;-78
2021/07/25 10:15:54;;;;;;;4.13;2.47;;;31.90;65.70;;;;;;5040479;28;20032;-78
2021/07/25 10:18:21;;;;;;;6.30;2.95;;;32.30;64.00;;;;;;5025687;28;20112;-78
2021/07/25 10:20:47;;;;;;;5.22;3.15;;;32.30;63.20;;;;;;5042899;28;20060;-77
2021/07/25 10:23:13;;;;;;;8.98;3.22;;;32.40;65.30;;;;;;5027643;28;20056;-77
2021/07/25 10:25:39;;;;;;;3.42;2.58;;;32.80;60.30;;;;;;5056448;28;20093;-77
2021/07/25 10:28:04;;;;;;;5.82;2.70;;;32.70;60.60;;;;;;5007671;28;20032;-78
2021/07/25 10:30:30;;;;;;;5.97;2.75;;;33.00;59.20;;;;;;5042943;28;20654;-77
2021/07/25 10:32:56;;;;;;;3.25;2.60;;;33.10;64.10;;;;;;5026516;28;20132;-77
2021/07/25 10:35:21;;;;;;;3.88;3.08;;;33.20;62.10;;;;;;4989311;28;20033;-77
2021/07/25 10:37:49;;;;;;;5.95;3.00;;;33.40;63.40;;;;;;5001988;28;20028;-77
2021/07/25 10:40:15;;;;;;;4.22;2.78;;;33.50;62.00;;;;;;5021682;28;20021;-77
2021/07/25 10:42:50;;;;;;;5.60;2.97;;;33.50;60.80;;;;;;5024980;28;20025;-77
2021/07/25 10:45:16;;;;;;;6.50;3.25;;;33.60;61.00;;;;;;5013086;28;20033;-77
2021/07/25 10:47:44;;;;;;;3.35;2.40;;;33.50;61.00;;;;;;5046454;28;20389;-77
2021/07/25 10:50:20;;;;;;;3.78;2.88;;;33.40;58.30;;;;;;5042322;28;20123;-77
2021/07/25 10:52:55;;;;;;;4.35;2.90;;;33.50;61.10;;;;;;5030851;28;20051;-77
2021/07/25 10:55:39;;;;;;;3.80;2.92;;;33.50;58.00;;;;;;5045937;28;20025;-77
2021/07/25 10:58:08;;;;;;;2.88;2.67;;;33.90;58.40;;;;;;5053577;28;20374;-77
2021/07/25 11:00:41;;;;;;;4.38;2.80;;;33.60;56.60;;;;;;5030668;28;20129;-76
2021/07/25 11:03:07;;;;;;;3.78;3.40;;;33.00;56.70;;;;;;5024489;28;20435;-76
2021/07/25 11:05:33;;;;;;;5.18;3.00;;;33.20;58.40;;;;;;5046341;28;20094;-76
2021/07/25 11:07:59;;;;;;;5.05;2.95;;;33.50;56.20;;;;;;5041485;28;20040;-75
2021/07/25 11:10:36;;;;;;;5.13;3.08;;;33.70;59.60;;;;;;5048707;28;20029;-76
2021/07/25 11:13:01;;;;;;;3.53;2.58;;;33.80;58.00;;;;;;5056305;28;20044;-76
2021/07/25 11:15:32;;;;;;;4.07;2.35;;;33.90;55.30;;;;;;5058704;28;20033;-75
2021/07/25 11:18:02;;;;;;;4.20;3.15;;;34.00;55.40;;;;;;5045506;28;20480;-75
2021/07/25 11:20:37;;;;;;;4.85;3.08;;;34.20;57.70;;;;;;5049660;28;20028;-75
2021/07/25 11:23:26;;;;;;;5.05;3.75;;;34.20;58.40;;;;;;5030725;28;20071;-76
2021/07/25 11:25:53;;;;;;;4.47;3.13;;;34.20;58.40;;;;;;5048119;28;20107;-77
2021/07/25 11:28:38;;;;;;;4.90;3.10;;;34.20;57.40;;;;;;5026359;28;20408;-75
2021/07/25 11:31:04;;;;;;;3.95;2.80;;;34.00;57.20;;;;;;5046693;28;20035;-76
2021/07/25 11:33:43;;;;;;;4.75;3.25;;;33.80;56.80;;;;;;5040952;28;20037;-76
2021/07/25 11:36:15;;;;;;;3.42;3.13;;;33.80;54.30;;;;;;5038096;28;20029;-76
2021/07/25 11:38:41;;;;;;;3.47;2.85;;;34.20;56.70;;;;;;5048508;28;20043;-77
2021/07/25 11:41:08;;;;;;;3.17;2.88;;;34.30;55.80;;;;;;5021507;28;20025;-77
2021/07/25 11:43:59;;;;;;;3.47;2.40;;;34.50;55.50;;;;;;5046425;28;20037;-76
2021/07/25 11:46:28;;;;;;;4.03;2.63;;;34.60;55.20;;;;;;5042361;28;20036;-76
2021/07/25 11:49:09;;;;;;;4.90;2.55;;;34.60;55.30;;;;;;4362080;28;10000356;-76
2021/07/25 11:51:36;;;;;;;6.55;2.80;;;34.40;52.70;;;;;;5038296;28;20037;-76
2021/07/25 11:54:02;;;;;;;3.05;2.72;;;34.20;53.70;;;;;;5037898;28;20044;-77
2021/07/25 11:56:28;;;;;;;3.00;2.70;;;33.50;53.30;;;;;;5028095;28;20060;-77
2021/07/25 11:59:06;;;;;;;4.38;3.55;;;33.70;55.80;;;;;;4690792;28;10000345;-76
2021/07/25 12:01:33;;;;;;;6.35;2.55;;;33.80;55.20;;;;;;5019969;28;20119;-76
2021/07/25 12:04:00;;;;;;;5.22;2.72;;;33.80;54.40;;;;;;5008220;28;20044;-77
2021/07/25 12:06:26;;;;;;;2.55;2.15;;;33.80;55.50;;;;;;5027382;28;20529;-76
2021/07/25 12:09:10;;;;;;;3.13;2.80;;;33.60;53.80;;;;;;5044059;28;20043;-76
2021/07/25 12:11:36;;;;;;;3.13;2.47;;;33.30;54.70;;;;;;5035770;28;20483;-76
2021/07/25 12:14:01;;;;;;;2.95;2.13;;;33.50;54.80;;;;;;5010661;28;20063;-76
2021/07/25 12:16:49;;;;;;;3.42;2.70;;;33.30;53.30;;;;;;5044985;28;20564;-76
2021/07/25 12:19:15;;;;;;;2.83;2.60;;;33.60;54.70;;;;;;5031216;28;20116;-76
2021/07/25 12:21:41;;;;;;;3.45;2.50;;;33.70;52.30;;;;;;5052952;28;20194;-76
2021/07/25 12:24:24;;;;;;;3.22;2.75;;;33.40;52.40;;;;;;5021554;28;20029;-76
2021/07/25 12:26:49;;;;;;;3.97;2.20;;;33.80;54.50;;;;;;5050321;28;20127;-76
2021/07/25 12:29:37;;;;;;;3.92;2.97;;;33.60;52.10;;;;;;5054439;28;20540;-76
2021/07/25 12:32:23;;;;;;;3.03;2.72;;;33.50;54.60;;;;;;5027502;28;20033;-76
2021/07/25 12:34:49;;;;;;;4.50;2.70;;;33.80;54.00;;;;;;5048334;28;20048;-76
2021/07/25 12:37:28;;;;;;;3.60;2.72;;;33.80;53.90;;;;;;5021733;28;20110;-76
2021/07/25 12:40:04;;;;;;;5.15;2.70;;;33.70;54.20;;;;;;5045303;28;20056;-75